• Join FlightAware (Why Join?)
  • Login
  • US Flag 
01:33PM EDT


 

Airport Tracker/Info


-or-


 

Live Flight TrackerFlight Track Log ✈ CTL17 ✈ 30-Apr-2013 ✈ KMBS - KYIP

Flight Track Log - Related Links

Times and Time Zones

All times are in EDT time to prevent confusion due to time zone crossing. See the CTL17 flight status page for this flight to view local times or setup timezone preferences in your user account.

Time Position Orientation Groundspeed Altitude Reporting Facility
EDT Latitude Longitude Course Direction KTS MPH feet Rate Location/Type
05:01PM 43.3904 -84.0180 160° South  Level Estimated
05:02PM 43.3637 -83.9994 153° Southeast  Level FlightAware Approximate
05:03PM 43.3371 -83.9809 153° Southeast  Level FlightAware Approximate
05:04PM 43.3085 -83.9689 160° South  Level Estimated
05:05PM 43.2809 -83.9532 157° South  Level FlightAware Approximate
05:06PM 43.2533 -83.9375 157° South  Level FlightAware Approximate
05:07PM 43.2246 -83.9258 163° South  Level Estimated
05:08PM 43.1964 -83.9124 161° South  Level FlightAware Approximate
05:09PM 43.1682 -83.8990 161° South  Level FlightAware Approximate
05:10PM 43.1399 -83.8856 161° South  Level FlightAware Approximate
05:11PM 43.1113 -83.8741 160° South  Level Estimated
05:11PM 42.9119 -83.7781 160° South 158 182 5,100  Level Cleveland Center
05:12PM 42.8956 -83.7689 158° South 158 182 5,100  Level Cleveland Center
05:12PM 43.0832 -83.8599 160° South  Level FlightAware Approximate
05:12PM 42.8586 -83.7469 156° South 159 183 5,100  Level Cleveland Center
05:13PM 43.0552 -83.8456 160° South  Level FlightAware Approximate
05:13PM 42.8153 -83.7306 164° South 157 181 5,100  Level Cleveland Center
05:14PM 43.0272 -83.8314 160° South  Level FlightAware Approximate
05:14PM 42.7719 -83.7172 167° South 157 181 5,100  Level Cleveland Center
05:15PM 42.9992 -83.8172 160° South  Level FlightAware Approximate
05:15PM 42.7328 -83.7039 166° South 159 183 5,100  Level Cleveland Center
05:16PM 42.9712 -83.8030 160° South  Level FlightAware Approximate
05:16PM 42.6850 -83.6903 168° South 159 183 4,900  Level Cleveland Center
05:17PM 42.6397 -83.6739 165° South 168 193 4,300 -420 Descending Cleveland Center
05:19PM 42.5942 -83.6633 170° South 156 180 4,100 -120 Descending Cleveland Center
05:19PM 42.5569 -83.6531 169° South 146 168 4,100 -120 Level Cleveland Center
05:20PM 42.5175 -83.6369 163° South 147 169 3,900 -360 Descending Cleveland Center
05:21PM 42.4764 -83.6153 159° South 159 183 3,400 -480 Descending Cleveland Center
05:22PM 42.4353 -83.5964 161° South 158 182 3,000 -240 Descending Cleveland Center
05:23PM 42.3961 -83.5778 161° South 149 171 3,000 -240 Level Cleveland Center
05:24PM 42.3550 -83.5589 161° South 152 175 2,600 -480 Descending Cleveland Center
05:26PM 42.3136 -83.5428 164° South 156 180 2,100 -480 Descending Cleveland Center
05:27PM 42.2703 -83.5294 167° South 134 154 1,600 -480 Descending Cleveland Center
05:29PM 42.2333 -83.5167 160° South  Level FlightAware Approximate
05:36PM 42.2393 -83.5310 160° South  Level Estimated
05:37PM 42.2393 -83.5310 160° South  Level Estimated